sensor_id;sensor_type;location;lat;lon;timestamp;P1;durP1;ratioP1;P2;durP2;ratioP2
10277;SDS011;5184;51.376;7.148;2022-07-05T00:00:42;3.43;;;2.73;;
10277;SDS011;5184;51.376;7.148;2022-07-05T00:03:08;3.40;;;2.77;;
10277;SDS011;5184;51.376;7.148;2022-07-05T00:05:35;3.27;;;2.97;;
10277;SDS011;5184;51.376;7.148;2022-07-05T00:08:02;3.63;;;3.23;;
10277;SDS011;5184;51.376;7.148;2022-07-05T00:10:29;3.80;;;3.17;;
10277;SDS011;5184;51.376;7.148;2022-07-05T00:12:55;3.30;;;3.00;;
10277;SDS011;5184;51.376;7.148;2022-07-05T00:15:24;3.77;;;2.83;;
10277;SDS011;5184;51.376;7.148;2022-07-05T00:17:50;3.97;;;2.50;;
10277;SDS011;5184;51.376;7.148;2022-07-05T00:20:18;3.43;;;2.60;;
10277;SDS011;5184;51.376;7.148;2022-07-05T00:22:45;2.73;;;2.53;;
10277;SDS011;5184;51.376;7.148;2022-07-05T00:25:13;3.33;;;2.90;;
10277;SDS011;5184;51.376;7.148;2022-07-05T00:27:40;3.47;;;3.10;;
10277;SDS011;5184;51.376;7.148;2022-07-05T00:30:07;5.60;;;2.90;;
10277;SDS011;5184;51.376;7.148;2022-07-05T00:32:34;3.37;;;2.70;;
10277;SDS011;5184;51.376;7.148;2022-07-05T00:35:01;4.03;;;3.23;;
10277;SDS011;5184;51.376;7.148;2022-07-05T00:37:28;5.77;;;3.60;;
10277;SDS011;5184;51.376;7.148;2022-07-05T00:39:55;3.40;;;3.10;;
10277;SDS011;5184;51.376;7.148;2022-07-05T00:42:22;3.57;;;3.27;;
10277;SDS011;5184;51.376;7.148;2022-07-05T00:44:49;3.40;;;3.07;;
10277;SDS011;5184;51.376;7.148;2022-07-05T00:47:16;3.27;;;2.97;;
10277;SDS011;5184;51.376;7.148;2022-07-05T00:49:44;4.43;;;3.30;;
10277;SDS011;5184;51.376;7.148;2022-07-05T00:52:11;3.40;;;3.20;;
10277;SDS011;5184;51.376;7.148;2022-07-05T00:54:38;4.27;;;3.07;;
10277;SDS011;5184;51.376;7.148;2022-07-05T00:57:05;3.33;;;2.90;;
10277;SDS011;5184;51.376;7.148;2022-07-05T00:59:32;3.83;;;3.07;;
10277;SDS011;5184;51.376;7.148;2022-07-05T01:02:02;3.40;;;3.10;;
10277;SDS011;5184;51.376;7.148;2022-07-05T01:04:28;4.13;;;3.10;;
10277;SDS011;5184;51.376;7.148;2022-07-05T01:06:55;4.77;;;3.70;;
10277;SDS011;5184;51.376;7.148;2022-07-05T01:09:23;3.53;;;3.23;;
10277;SDS011;5184;51.376;7.148;2022-07-05T01:11:50;4.57;;;3.17;;
10277;SDS011;5184;51.376;7.148;2022-07-05T01:14:16;3.47;;;3.17;;
10277;SDS011;5184;51.376;7.148;2022-07-05T01:16:43;4.63;;;3.27;;
10277;SDS011;5184;51.376;7.148;2022-07-05T01:19:11;4.40;;;3.30;;
10277;SDS011;5184;51.376;7.148;2022-07-05T01:21:37;3.77;;;3.27;;
10277;SDS011;5184;51.376;7.148;2022-07-05T01:24:03;3.53;;;3.20;;
10277;SDS011;5184;51.376;7.148;2022-07-05T01:26:30;3.60;;;3.30;;
10277;SDS011;5184;51.376;7.148;2022-07-05T01:28:56;3.97;;;3.47;;
10277;SDS011;5184;51.376;7.148;2022-07-05T01:31:23;4.10;;;3.70;;
10277;SDS011;5184;51.376;7.148;2022-07-05T01:33:49;3.47;;;3.17;;
10277;SDS011;5184;51.376;7.148;2022-07-05T01:36:16;3.90;;;3.13;;
10277;SDS011;5184;51.376;7.148;2022-07-05T01:38:43;4.07;;;3.50;;
10277;SDS011;5184;51.376;7.148;2022-07-05T01:41:09;4.20;;;3.43;;
10277;SDS011;5184;51.376;7.148;2022-07-05T01:43:36;4.93;;;3.67;;
10277;SDS011;5184;51.376;7.148;2022-07-05T01:46:04;3.90;;;3.50;;
10277;SDS011;5184;51.376;7.148;2022-07-05T01:48:32;4.17;;;3.77;;
10277;SDS011;5184;51.376;7.148;2022-07-05T01:50:57;4.47;;;3.60;;
10277;SDS011;5184;51.376;7.148;2022-07-05T01:53:24;3.67;;;3.37;;
10277;SDS011;5184;51.376;7.148;2022-07-05T01:55:50;4.17;;;3.80;;
10277;SDS011;5184;51.376;7.148;2022-07-05T01:58:17;4.30;;;3.90;;
10277;SDS011;5184;51.376;7.148;2022-07-05T02:00:44;4.10;;;3.70;;
10277;SDS011;5184;51.376;7.148;2022-07-05T02:03:12;3.70;;;3.40;;
10277;SDS011;5184;51.376;7.148;2022-07-05T02:05:38;4.47;;;3.70;;
10277;SDS011;5184;51.376;7.148;2022-07-05T02:08:06;3.80;;;3.40;;
10277;SDS011;5184;51.376;7.148;2022-07-05T02:10:35;5.93;;;4.00;;
10277;SDS011;5184;51.376;7.148;2022-07-05T02:13:02;4.03;;;3.60;;
10277;SDS011;5184;51.376;7.148;2022-07-05T02:15:30;4.43;;;3.20;;
10277;SDS011;5184;51.376;7.148;2022-07-05T02:17:57;3.70;;;3.40;;
10277;SDS011;5184;51.376;7.148;2022-07-05T02:20:23;6.30;;;3.27;;
10277;SDS011;5184;51.376;7.148;2022-07-05T02:22:50;3.60;;;3.23;;
10277;SDS011;5184;51.376;7.148;2022-07-05T02:25:17;4.50;;;3.70;;
10277;SDS011;5184;51.376;7.148;2022-07-05T02:27:43;4.27;;;3.67;;
10277;SDS011;5184;51.376;7.148;2022-07-05T02:30:10;4.20;;;3.80;;
10277;SDS011;5184;51.376;7.148;2022-07-05T02:32:38;4.30;;;3.90;;
10277;SDS011;5184;51.376;7.148;2022-07-05T02:35:05;4.00;;;3.33;;
10277;SDS011;5184;51.376;7.148;2022-07-05T02:37:32;4.60;;;3.50;;
10277;SDS011;5184;51.376;7.148;2022-07-05T02:39:58;4.00;;;3.60;;
10277;SDS011;5184;51.376;7.148;2022-07-05T02:42:25;4.20;;;3.40;;
10277;SDS011;5184;51.376;7.148;2022-07-05T02:44:52;4.17;;;3.23;;
10277;SDS011;5184;51.376;7.148;2022-07-05T02:47:18;5.57;;;3.70;;
10277;SDS011;5184;51.376;7.148;2022-07-05T02:49:45;3.67;;;3.33;;
10277;SDS011;5184;51.376;7.148;2022-07-05T02:52:12;3.73;;;3.43;;
10277;SDS011;5184;51.376;7.148;2022-07-05T02:54:38;3.97;;;3.67;;
10277;SDS011;5184;51.376;7.148;2022-07-05T02:57:05;5.00;;;3.67;;
10277;SDS011;5184;51.376;7.148;2022-07-05T02:59:32;5.40;;;3.60;;
10277;SDS011;5184;51.376;7.148;2022-07-05T03:01:58;5.40;;;3.93;;
10277;SDS011;5184;51.376;7.148;2022-07-05T03:04:25;3.73;;;3.40;;
10277;SDS011;5184;51.376;7.148;2022-07-05T03:06:51;4.00;;;3.60;;
10277;SDS011;5184;51.376;7.148;2022-07-05T03:09:18;6.37;;;4.10;;
10277;SDS011;5184;51.376;7.148;2022-07-05T03:11:45;4.63;;;3.33;;
10277;SDS011;5184;51.376;7.148;2022-07-05T03:14:11;3.40;;;3.10;;
10277;SDS011;5184;51.376;7.148;2022-07-05T03:16:38;3.70;;;3.40;;
10277;SDS011;5184;51.376;7.148;2022-07-05T03:19:05;4.67;;;3.43;;
10277;SDS011;5184;51.376;7.148;2022-07-05T03:21:32;5.70;;;3.33;;
10277;SDS011;5184;51.376;7.148;2022-07-05T03:23:59;4.63;;;3.83;;
10277;SDS011;5184;51.376;7.148;2022-07-05T03:26:33;3.60;;;3.30;;
10277;SDS011;5184;51.376;7.148;2022-07-05T03:29:00;4.03;;;3.30;;
10277;SDS011;5184;51.376;7.148;2022-07-05T03:31:27;4.33;;;3.47;;
10277;SDS011;5184;51.376;7.148;2022-07-05T03:33:56;5.63;;;3.50;;
10277;SDS011;5184;51.376;7.148;2022-07-05T03:36:24;4.17;;;3.47;;
10277;SDS011;5184;51.376;7.148;2022-07-05T03:38:52;4.77;;;3.97;;
10277;SDS011;5184;51.376;7.148;2022-07-05T03:41:21;4.33;;;3.67;;
10277;SDS011;5184;51.376;7.148;2022-07-05T03:43:49;4.77;;;3.50;;
10277;SDS011;5184;51.376;7.148;2022-07-05T03:46:16;3.70;;;3.40;;
10277;SDS011;5184;51.376;7.148;2022-07-05T03:48:43;4.30;;;3.57;;
10277;SDS011;5184;51.376;7.148;2022-07-05T03:51:10;4.10;;;3.70;;
10277;SDS011;5184;51.376;7.148;2022-07-05T03:53:37;4.37;;;3.23;;
10277;SDS011;5184;51.376;7.148;2022-07-05T03:56:05;4.93;;;3.73;;
10277;SDS011;5184;51.376;7.148;2022-07-05T03:58:32;3.87;;;3.40;;
10277;SDS011;5184;51.376;7.148;2022-07-05T04:00:59;6.10;;;3.90;;
10277;SDS011;5184;51.376;7.148;2022-07-05T04:03:32;3.80;;;3.50;;
10277;SDS011;5184;51.376;7.148;2022-07-05T04:06:02;4.33;;;3.93;;
10277;SDS011;5184;51.376;7.148;2022-07-05T04:08:29;3.90;;;3.60;;
10277;SDS011;5184;51.376;7.148;2022-07-05T04:10:59;3.87;;;3.57;;
10277;SDS011;5184;51.376;7.148;2022-07-05T04:13:26;4.40;;;3.40;;
10277;SDS011;5184;51.376;7.148;2022-07-05T04:15:53;4.50;;;3.60;;
10277;SDS011;5184;51.376;7.148;2022-07-05T04:18:20;4.27;;;3.40;;
10277;SDS011;5184;51.376;7.148;2022-07-05T04:20:47;7.43;;;3.47;;
10277;SDS011;5184;51.376;7.148;2022-07-05T04:23:18;4.07;;;3.70;;
10277;SDS011;5184;51.376;7.148;2022-07-05T04:25:47;4.40;;;3.70;;
10277;SDS011;5184;51.376;7.148;2022-07-05T04:28:17;3.60;;;3.30;;
10277;SDS011;5184;51.376;7.148;2022-07-05T04:30:44;4.40;;;4.00;;
10277;SDS011;5184;51.376;7.148;2022-07-05T04:33:11;4.10;;;3.70;;
10277;SDS011;5184;51.376;7.148;2022-07-05T04:35:38;4.13;;;3.60;;
10277;SDS011;5184;51.376;7.148;2022-07-05T04:38:11;4.67;;;3.97;;
10277;SDS011;5184;51.376;7.148;2022-07-05T04:40:39;4.57;;;3.70;;
10277;SDS011;5184;51.376;7.148;2022-07-05T04:43:05;4.37;;;3.97;;
10277;SDS011;5184;51.376;7.148;2022-07-05T04:45:32;4.07;;;3.77;;
10277;SDS011;5184;51.376;7.148;2022-07-05T04:47:59;4.57;;;3.63;;
10277;SDS011;5184;51.376;7.148;2022-07-05T04:50:26;4.50;;;4.07;;
10277;SDS011;5184;51.376;7.148;2022-07-05T04:52:58;5.27;;;3.37;;
10277;SDS011;5184;51.376;7.148;2022-07-05T04:55:32;4.70;;;3.63;;
10277;SDS011;5184;51.376;7.148;2022-07-05T04:58:06;4.87;;;3.47;;
10277;SDS011;5184;51.376;7.148;2022-07-05T05:00:39;4.50;;;3.60;;
10277;SDS011;5184;51.376;7.148;2022-07-05T05:03:09;3.90;;;3.50;;
10277;SDS011;5184;51.376;7.148;2022-07-05T05:05:39;4.33;;;3.90;;
10277;SDS011;5184;51.376;7.148;2022-07-05T05:08:12;4.50;;;3.70;;
10277;SDS011;5184;51.376;7.148;2022-07-05T05:13:30;3.60;;;3.30;;
10277;SDS011;5184;51.376;7.148;2022-07-05T05:16:05;4.03;;;3.63;;
10277;SDS011;5184;51.376;7.148;2022-07-05T05:18:37;4.20;;;3.63;;
10277;SDS011;5184;51.376;7.148;2022-07-05T05:26:48;4.40;;;3.60;;
10277;SDS011;5184;51.376;7.148;2022-07-05T05:29:27;3.90;;;3.30;;
10277;SDS011;5184;51.376;7.148;2022-07-05T05:32:07;3.67;;;3.23;;
10277;SDS011;5184;51.376;7.148;2022-07-05T05:34:45;3.47;;;3.17;;
10277;SDS011;5184;51.376;7.148;2022-07-05T05:37:17;3.73;;;3.33;;
10277;SDS011;5184;51.376;7.148;2022-07-05T05:39:50;5.07;;;4.33;;
10277;SDS011;5184;51.376;7.148;2022-07-05T05:42:29;4.62;;;4.20;;
10277;SDS011;5184;51.376;7.148;2022-07-05T05:44:57;5.37;;;3.50;;
10277;SDS011;5184;51.376;7.148;2022-07-05T05:47:24;3.70;;;3.20;;
10277;SDS011;5184;51.376;7.148;2022-07-05T05:49:51;4.30;;;3.50;;
10277;SDS011;5184;51.376;7.148;2022-07-05T05:52:19;4.73;;;3.37;;
10277;SDS011;5184;51.376;7.148;2022-07-05T05:54:46;4.20;;;3.27;;
10277;SDS011;5184;51.376;7.148;2022-07-05T05:57:14;4.67;;;3.50;;
10277;SDS011;5184;51.376;7.148;2022-07-05T05:59:43;3.40;;;3.10;;
10277;SDS011;5184;51.376;7.148;2022-07-05T06:02:13;3.60;;;3.30;;
10277;SDS011;5184;51.376;7.148;2022-07-05T06:04:40;3.40;;;3.10;;
10277;SDS011;5184;51.376;7.148;2022-07-05T06:07:07;3.37;;;2.90;;
10277;SDS011;5184;51.376;7.148;2022-07-05T06:09:33;4.67;;;3.20;;
10277;SDS011;5184;51.376;7.148;2022-07-05T06:12:00;3.30;;;3.00;;
10277;SDS011;5184;51.376;7.148;2022-07-05T06:14:27;3.50;;;2.80;;
10277;SDS011;5184;51.376;7.148;2022-07-05T06:16:54;4.53;;;2.90;;
10277;SDS011;5184;51.376;7.148;2022-07-05T06:19:20;4.33;;;3.10;;
10277;SDS011;5184;51.376;7.148;2022-07-05T06:21:47;3.67;;;3.03;;
10277;SDS011;5184;51.376;7.148;2022-07-05T06:24:15;4.10;;;2.63;;
10277;SDS011;5184;51.376;7.148;2022-07-05T06:26:45;2.97;;;2.67;;
10277;SDS011;5184;51.376;7.148;2022-07-05T06:29:14;4.63;;;2.80;;
10277;SDS011;5184;51.376;7.148;2022-07-05T06:31:41;3.50;;;3.20;;
10277;SDS011;5184;51.376;7.148;2022-07-05T06:34:07;3.33;;;2.80;;
10277;SDS011;5184;51.376;7.148;2022-07-05T06:36:35;4.57;;;2.97;;
10277;SDS011;5184;51.376;7.148;2022-07-05T06:39:04;3.13;;;2.70;;
10277;SDS011;5184;51.376;7.148;2022-07-05T06:41:31;2.73;;;2.43;;
10277;SDS011;5184;51.376;7.148;2022-07-05T06:43:58;2.97;;;2.37;;
10277;SDS011;5184;51.376;7.148;2022-07-05T06:46:27;4.70;;;2.77;;
10277;SDS011;5184;51.376;7.148;2022-07-05T06:48:58;3.00;;;2.17;;
10277;SDS011;5184;51.376;7.148;2022-07-05T06:51:25;4.47;;;2.30;;
10277;SDS011;5184;51.376;7.148;2022-07-05T06:53:52;3.77;;;1.87;;
10277;SDS011;5184;51.376;7.148;2022-07-05T06:56:18;4.63;;;2.30;;
10277;SDS011;5184;51.376;7.148;2022-07-05T06:58:46;3.17;;;1.93;;
10277;SDS011;5184;51.376;7.148;2022-07-05T07:01:14;3.80;;;2.60;;
10277;SDS011;5184;51.376;7.148;2022-07-05T07:03:40;4.37;;;2.60;;
10277;SDS011;5184;51.376;7.148;2022-07-05T07:06:09;4.27;;;2.33;;
10277;SDS011;5184;51.376;7.148;2022-07-05T07:08:38;2.97;;;2.30;;
10277;SDS011;5184;51.376;7.148;2022-07-05T07:11:12;2.97;;;2.00;;
10277;SDS011;5184;51.376;7.148;2022-07-05T07:13:40;2.57;;;2.00;;
10277;SDS011;5184;51.376;7.148;2022-07-05T07:16:08;2.20;;;2.00;;
10277;SDS011;5184;51.376;7.148;2022-07-05T07:18:40;3.43;;;2.10;;
10277;SDS011;5184;51.376;7.148;2022-07-05T07:21:10;2.60;;;2.30;;
10277;SDS011;5184;51.376;7.148;2022-07-05T07:23:42;5.17;;;2.60;;
10277;SDS011;5184;51.376;7.148;2022-07-05T07:26:12;2.97;;;2.40;;
10277;SDS011;5184;51.376;7.148;2022-07-05T07:31:32;2.70;;;2.13;;
10277;SDS011;5184;51.376;7.148;2022-07-05T07:39:44;2.70;;;2.10;;
10277;SDS011;5184;51.376;7.148;2022-07-05T07:42:38;2.47;;;2.17;;
10277;SDS011;5184;51.376;7.148;2022-07-05T07:47:57;2.80;;;2.10;;
10277;SDS011;5184;51.376;7.148;2022-07-05T07:50:28;2.87;;;1.87;;
10277;SDS011;5184;51.376;7.148;2022-07-05T07:52:59;2.97;;;1.80;;
10277;SDS011;5184;51.376;7.148;2022-07-05T07:55:30;2.20;;;1.70;;
10277;SDS011;5184;51.376;7.148;2022-07-05T07:58:02;2.33;;;1.90;;
10277;SDS011;5184;51.376;7.148;2022-07-05T08:00:34;2.13;;;1.80;;
10277;SDS011;5184;51.376;7.148;2022-07-05T08:03:05;3.63;;;2.10;;
10277;SDS011;5184;51.376;7.148;2022-07-05T08:05:35;3.03;;;1.80;;
10277;SDS011;5184;51.376;7.148;2022-07-05T08:08:03;3.53;;;1.90;;
10277;SDS011;5184;51.376;7.148;2022-07-05T08:10:29;5.07;;;2.43;;
10277;SDS011;5184;51.376;7.148;2022-07-05T08:12:57;4.47;;;2.30;;
10277;SDS011;5184;51.376;7.148;2022-07-05T08:15:24;4.43;;;2.67;;
10277;SDS011;5184;51.376;7.148;2022-07-05T08:17:51;2.47;;;2.10;;
10277;SDS011;5184;51.376;7.148;2022-07-05T08:20:25;2.83;;;2.33;;
10277;SDS011;5184;51.376;7.148;2022-07-05T08:22:58;2.77;;;2.00;;
10277;SDS011;5184;51.376;7.148;2022-07-05T08:25:25;3.87;;;2.37;;
10277;SDS011;5184;51.376;7.148;2022-07-05T08:27:53;4.93;;;2.13;;
10277;SDS011;5184;51.376;7.148;2022-07-05T08:30:20;3.23;;;2.43;;
10277;SDS011;5184;51.376;7.148;2022-07-05T08:32:48;2.93;;;2.13;;
10277;SDS011;5184;51.376;7.148;2022-07-05T08:35:15;3.90;;;2.00;;
10277;SDS011;5184;51.376;7.148;2022-07-05T08:37:42;3.13;;;2.57;;
10277;SDS011;5184;51.376;7.148;2022-07-05T08:40:10;3.90;;;2.60;;
10277;SDS011;5184;51.376;7.148;2022-07-05T08:42:37;4.43;;;2.13;;
10277;SDS011;5184;51.376;7.148;2022-07-05T08:45:04;4.73;;;2.17;;
10277;SDS011;5184;51.376;7.148;2022-07-05T08:47:31;4.80;;;2.00;;
10277;SDS011;5184;51.376;7.148;2022-07-05T08:49:58;4.20;;;2.70;;
10277;SDS011;5184;51.376;7.148;2022-07-05T08:52:25;2.77;;;1.90;;
10277;SDS011;5184;51.376;7.148;2022-07-05T08:54:51;3.40;;;1.90;;
10277;SDS011;5184;51.376;7.148;2022-07-05T08:57:18;3.83;;;2.10;;
10277;SDS011;5184;51.376;7.148;2022-07-05T08:59:45;4.00;;;2.00;;
10277;SDS011;5184;51.376;7.148;2022-07-05T09:02:12;4.07;;;2.53;;
10277;SDS011;5184;51.376;7.148;2022-07-05T09:04:41;3.30;;;2.00;;
10277;SDS011;5184;51.376;7.148;2022-07-05T09:07:05;5.43;;;2.43;;
10277;SDS011;5184;51.376;7.148;2022-07-05T09:09:32;4.60;;;2.20;;
10277;SDS011;5184;51.376;7.148;2022-07-05T09:11:58;3.13;;;1.80;;
10277;SDS011;5184;51.376;7.148;2022-07-05T09:14:25;4.47;;;2.57;;
10277;SDS011;5184;51.376;7.148;2022-07-05T09:16:53;3.60;;;2.30;;
10277;SDS011;5184;51.376;7.148;2022-07-05T09:19:20;3.63;;;2.90;;
10277;SDS011;5184;51.376;7.148;2022-07-05T09:21:46;2.87;;;2.40;;
10277;SDS011;5184;51.376;7.148;2022-07-05T09:24:13;3.23;;;2.60;;
10277;SDS011;5184;51.376;7.148;2022-07-05T09:26:41;3.97;;;2.53;;
10277;SDS011;5184;51.376;7.148;2022-07-05T09:29:09;4.73;;;2.67;;
10277;SDS011;5184;51.376;7.148;2022-07-05T09:31:36;3.53;;;2.50;;
10277;SDS011;5184;51.376;7.148;2022-07-05T09:34:03;4.70;;;2.23;;
10277;SDS011;5184;51.376;7.148;2022-07-05T09:39:08;3.00;;;2.20;;
10277;SDS011;5184;51.376;7.148;2022-07-05T09:41:35;2.87;;;2.43;;
10277;SDS011;5184;51.376;7.148;2022-07-05T09:44:02;5.17;;;3.03;;
10277;SDS011;5184;51.376;7.148;2022-07-05T09:46:31;3.63;;;2.57;;
10277;SDS011;5184;51.376;7.148;2022-07-05T09:48:59;3.13;;;2.57;;
10277;SDS011;5184;51.376;7.148;2022-07-05T09:51:31;4.47;;;2.13;;
10277;SDS011;5184;51.376;7.148;2022-07-05T09:53:58;3.60;;;2.30;;
10277;SDS011;5184;51.376;7.148;2022-07-05T10:15:34;3.93;;;2.00;;
10277;SDS011;5184;51.376;7.148;2022-07-05T10:18:04;2.97;;;1.60;;
10277;SDS011;5184;51.376;7.148;2022-07-05T10:20:44;1.83;;;1.60;;
10277;SDS011;5184;51.376;7.148;2022-07-05T10:31:18;2.20;;;1.63;;
10277;SDS011;5184;51.376;7.148;2022-07-05T10:33:47;5.00;;;1.90;;
10277;SDS011;5184;51.376;7.148;2022-07-05T10:36:18;2.97;;;1.60;;
10277;SDS011;5184;51.376;7.148;2022-07-05T10:38:48;3.60;;;1.63;;
10277;SDS011;5184;51.376;7.148;2022-07-05T10:41:23;2.90;;;1.70;;
10277;SDS011;5184;51.376;7.148;2022-07-05T10:43:53;2.30;;;1.80;;
10277;SDS011;5184;51.376;7.148;2022-07-05T10:54:35;1.60;;;1.50;;
10277;SDS011;5184;51.376;7.148;2022-07-05T11:02:32;4.80;;;1.70;;
10277;SDS011;5184;51.376;7.148;2022-07-05T11:05:01;2.27;;;1.90;;
10277;SDS011;5184;51.376;7.148;2022-07-05T11:10:09;2.80;;;1.90;;
10277;SDS011;5184;51.376;7.148;2022-07-05T11:12:38;3.23;;;1.67;;
10277;SDS011;5184;51.376;7.148;2022-07-05T11:15:09;4.63;;;1.90;;
10277;SDS011;5184;51.376;7.148;2022-07-05T11:17:38;2.30;;;1.80;;
10277;SDS011;5184;51.376;7.148;2022-07-05T11:20:12;2.50;;;1.53;;
10277;SDS011;5184;51.376;7.148;2022-07-05T11:23:14;2.20;;;1.50;;
10277;SDS011;5184;51.376;7.148;2022-07-05T11:28:18;1.87;;;1.63;;
10277;SDS011;5184;51.376;7.148;2022-07-05T11:33:39;1.83;;;1.70;;
10277;SDS011;5184;51.376;7.148;2022-07-05T11:47:04;2.50;;;1.57;;
10277;SDS011;5184;51.376;7.148;2022-07-05T12:03:27;4.40;;;2.23;;
10277;SDS011;5184;51.376;7.148;2022-07-05T12:14:20;2.50;;;1.80;;
10277;SDS011;5184;51.376;7.148;2022-07-05T12:17:09;4.70;;;2.10;;
10277;SDS011;5184;51.376;7.148;2022-07-05T12:19:25;3.87;;;1.97;;
10277;SDS011;5184;51.376;7.148;2022-07-05T12:21:54;2.20;;;1.80;;
10277;SDS011;5184;51.376;7.148;2022-07-05T12:27:11;1.90;;;1.63;;
10277;SDS011;5184;51.376;7.148;2022-07-05T12:29:41;2.20;;;1.60;;
10277;SDS011;5184;51.376;7.148;2022-07-05T12:32:22;1.57;;;1.47;;
10277;SDS011;5184;51.376;7.148;2022-07-05T12:34:50;1.93;;;1.70;;
10277;SDS011;5184;51.376;7.148;2022-07-05T12:37:21;2.33;;;1.70;;
10277;SDS011;5184;51.376;7.148;2022-07-05T12:39:49;2.10;;;1.90;;
10277;SDS011;5184;51.376;7.148;2022-07-05T12:50:21;2.93;;;1.83;;
10277;SDS011;5184;51.376;7.148;2022-07-05T12:52:56;2.43;;;1.77;;
10277;SDS011;5184;51.376;7.148;2022-07-05T12:58:07;2.27;;;1.70;;
10277;SDS011;5184;51.376;7.148;2022-07-05T13:00:38;2.07;;;1.60;;
10277;SDS011;5184;51.376;7.148;2022-07-05T13:03:09;3.67;;;1.87;;
10277;SDS011;5184;51.376;7.148;2022-07-05T13:05:40;3.07;;;1.63;;
10277;SDS011;5184;51.376;7.148;2022-07-05T13:10:46;2.13;;;1.57;;
10277;SDS011;5184;51.376;7.148;2022-07-05T13:13:18;2.07;;;1.70;;
10277;SDS011;5184;51.376;7.148;2022-07-05T13:15:45;2.27;;;1.63;;
10277;SDS011;5184;51.376;7.148;2022-07-05T13:18:22;2.20;;;1.80;;
10277;SDS011;5184;51.376;7.148;2022-07-05T13:20:43;5.67;;;2.00;;
10277;SDS011;5184;51.376;7.148;2022-07-05T13:23:13;1.80;;;1.67;;
10277;SDS011;5184;51.376;7.148;2022-07-05T13:25:44;4.30;;;1.50;;
10277;SDS011;5184;51.376;7.148;2022-07-05T13:28:12;5.67;;;1.57;;
10277;SDS011;5184;51.376;7.148;2022-07-05T13:30:45;2.57;;;1.70;;
10277;SDS011;5184;51.376;7.148;2022-07-05T13:33:16;2.83;;;1.70;;
10277;SDS011;5184;51.376;7.148;2022-07-05T13:35:44;4.20;;;1.83;;
10277;SDS011;5184;51.376;7.148;2022-07-05T13:38:16;2.57;;;1.70;;
10277;SDS011;5184;51.376;7.148;2022-07-05T13:40:44;2.47;;;1.67;;
10277;SDS011;5184;51.376;7.148;2022-07-05T13:43:15;1.97;;;1.40;;
10277;SDS011;5184;51.376;7.148;2022-07-05T13:45:43;2.53;;;1.40;;
10277;SDS011;5184;51.376;7.148;2022-07-05T13:48:14;4.17;;;1.90;;
10277;SDS011;5184;51.376;7.148;2022-07-05T13:50:43;3.30;;;1.80;;
10277;SDS011;5184;51.376;7.148;2022-07-05T14:04:15;2.43;;;1.60;;
10277;SDS011;5184;51.376;7.148;2022-07-05T14:06:41;2.57;;;1.50;;
10277;SDS011;5184;51.376;7.148;2022-07-05T14:09:08;2.97;;;1.87;;
10277;SDS011;5184;51.376;7.148;2022-07-05T14:11:34;2.20;;;1.93;;
10277;SDS011;5184;51.376;7.148;2022-07-05T14:14:01;2.97;;;1.80;;
10277;SDS011;5184;51.376;7.148;2022-07-05T14:16:27;2.67;;;1.70;;
10277;SDS011;5184;51.376;7.148;2022-07-05T14:18:54;5.43;;;1.73;;
10277;SDS011;5184;51.376;7.148;2022-07-05T14:21:21;2.47;;;1.60;;
10277;SDS011;5184;51.376;7.148;2022-07-05T14:23:47;2.30;;;1.63;;
10277;SDS011;5184;51.376;7.148;2022-07-05T14:26:14;2.07;;;1.63;;
10277;SDS011;5184;51.376;7.148;2022-07-05T14:28:41;4.77;;;1.93;;
10277;SDS011;5184;51.376;7.148;2022-07-05T14:31:07;3.17;;;1.87;;
10277;SDS011;5184;51.376;7.148;2022-07-05T14:33:35;3.37;;;1.80;;
10277;SDS011;5184;51.376;7.148;2022-07-05T14:36:01;2.37;;;2.13;;
10277;SDS011;5184;51.376;7.148;2022-07-05T14:38:28;3.03;;;1.90;;
10277;SDS011;5184;51.376;7.148;2022-07-05T14:40:55;3.87;;;2.20;;
10277;SDS011;5184;51.376;7.148;2022-07-05T14:43:22;4.50;;;1.80;;
10277;SDS011;5184;51.376;7.148;2022-07-05T14:45:48;3.03;;;2.30;;
10277;SDS011;5184;51.376;7.148;2022-07-05T14:48:15;3.57;;;1.93;;
10277;SDS011;5184;51.376;7.148;2022-07-05T14:50:42;3.13;;;2.13;;
10277;SDS011;5184;51.376;7.148;2022-07-05T14:53:08;3.33;;;2.30;;
10277;SDS011;5184;51.376;7.148;2022-07-05T14:55:35;3.63;;;2.33;;
10277;SDS011;5184;51.376;7.148;2022-07-05T14:58:02;3.70;;;2.43;;
10277;SDS011;5184;51.376;7.148;2022-07-05T15:00:28;3.83;;;2.40;;
10277;SDS011;5184;51.376;7.148;2022-07-05T15:02:56;4.43;;;2.40;;
10277;SDS011;5184;51.376;7.148;2022-07-05T15:05:23;4.37;;;2.67;;
10277;SDS011;5184;51.376;7.148;2022-07-05T15:07:50;4.37;;;2.57;;
10277;SDS011;5184;51.376;7.148;2022-07-05T15:10:16;3.37;;;2.47;;
10277;SDS011;5184;51.376;7.148;2022-07-05T15:12:43;4.00;;;2.37;;
10277;SDS011;5184;51.376;7.148;2022-07-05T15:15:11;4.07;;;2.60;;
10277;SDS011;5184;51.376;7.148;2022-07-05T15:17:37;6.00;;;2.93;;
10277;SDS011;5184;51.376;7.148;2022-07-05T15:20:04;4.63;;;2.60;;
10277;SDS011;5184;51.376;7.148;2022-07-05T15:22:31;6.03;;;2.90;;
10277;SDS011;5184;51.376;7.148;2022-07-05T15:24:58;4.10;;;2.53;;
10277;SDS011;5184;51.376;7.148;2022-07-05T15:27:24;5.53;;;2.60;;
10277;SDS011;5184;51.376;7.148;2022-07-05T15:29:51;3.30;;;2.07;;
10277;SDS011;5184;51.376;7.148;2022-07-05T15:32:17;3.43;;;2.50;;
10277;SDS011;5184;51.376;7.148;2022-07-05T15:34:44;2.83;;;2.10;;
10277;SDS011;5184;51.376;7.148;2022-07-05T15:37:11;3.00;;;2.33;;
10277;SDS011;5184;51.376;7.148;2022-07-05T15:39:37;4.43;;;2.60;;
10277;SDS011;5184;51.376;7.148;2022-07-05T15:42:04;4.53;;;3.10;;
10277;SDS011;5184;51.376;7.148;2022-07-05T15:44:31;6.90;;;2.70;;
10277;SDS011;5184;51.376;7.148;2022-07-05T15:46:57;4.53;;;2.90;;
10277;SDS011;5184;51.376;7.148;2022-07-05T15:49:25;4.37;;;3.60;;
10277;SDS011;5184;51.376;7.148;2022-07-05T15:51:51;4.20;;;3.00;;
10277;SDS011;5184;51.376;7.148;2022-07-05T15:54:18;3.13;;;2.70;;
10277;SDS011;5184;51.376;7.148;2022-07-05T15:56:44;3.77;;;3.30;;
10277;SDS011;5184;51.376;7.148;2022-07-05T15:59:11;3.83;;;2.93;;
10277;SDS011;5184;51.376;7.148;2022-07-05T16:01:38;5.20;;;2.43;;
10277;SDS011;5184;51.376;7.148;2022-07-05T16:04:04;5.20;;;2.80;;
10277;SDS011;5184;51.376;7.148;2022-07-05T16:06:31;6.23;;;3.07;;
10277;SDS011;5184;51.376;7.148;2022-07-05T16:08:58;5.43;;;3.00;;
10277;SDS011;5184;51.376;7.148;2022-07-05T16:11:24;8.67;;;3.30;;
10277;SDS011;5184;51.376;7.148;2022-07-05T16:13:51;3.70;;;3.20;;
10277;SDS011;5184;51.376;7.148;2022-07-05T16:16:17;3.50;;;3.20;;
10277;SDS011;5184;51.376;7.148;2022-07-05T16:18:46;4.10;;;2.80;;
10277;SDS011;5184;51.376;7.148;2022-07-05T16:21:12;6.33;;;2.67;;
10277;SDS011;5184;51.376;7.148;2022-07-05T16:23:40;4.40;;;2.60;;
10277;SDS011;5184;51.376;7.148;2022-07-05T16:26:06;3.90;;;2.50;;
10277;SDS011;5184;51.376;7.148;2022-07-05T16:28:33;4.40;;;2.30;;
10277;SDS011;5184;51.376;7.148;2022-07-05T16:31:01;4.30;;;2.70;;
10277;SDS011;5184;51.376;7.148;2022-07-05T16:33:29;4.00;;;2.20;;
10277;SDS011;5184;51.376;7.148;2022-07-05T16:35:56;3.00;;;2.50;;
10277;SDS011;5184;51.376;7.148;2022-07-05T16:38:22;2.67;;;2.47;;
10277;SDS011;5184;51.376;7.148;2022-07-05T16:40:49;3.70;;;2.70;;
10277;SDS011;5184;51.376;7.148;2022-07-05T16:43:15;4.77;;;2.50;;
10277;SDS011;5184;51.376;7.148;2022-07-05T16:45:42;4.73;;;2.87;;
10277;SDS011;5184;51.376;7.148;2022-07-05T16:48:09;4.33;;;3.00;;
10277;SDS011;5184;51.376;7.148;2022-07-05T16:50:37;3.23;;;2.47;;
10277;SDS011;5184;51.376;7.148;2022-07-05T16:53:04;4.23;;;2.60;;
10277;SDS011;5184;51.376;7.148;2022-07-05T16:55:31;3.50;;;2.80;;
10277;SDS011;5184;51.376;7.148;2022-07-05T16:57:58;5.37;;;2.77;;
10277;SDS011;5184;51.376;7.148;2022-07-05T17:00:26;3.67;;;2.13;;
10277;SDS011;5184;51.376;7.148;2022-07-05T17:02:54;3.90;;;2.53;;
10277;SDS011;5184;51.376;7.148;2022-07-05T17:05:21;4.57;;;2.43;;
10277;SDS011;5184;51.376;7.148;2022-07-05T17:07:47;5.23;;;2.23;;
10277;SDS011;5184;51.376;7.148;2022-07-05T17:10:14;3.50;;;2.40;;
10277;SDS011;5184;51.376;7.148;2022-07-05T17:12:41;3.90;;;2.07;;
10277;SDS011;5184;51.376;7.148;2022-07-05T17:15:08;3.90;;;2.47;;
10277;SDS011;5184;51.376;7.148;2022-07-05T17:17:35;2.00;;;1.80;;